sensor_id;sensor_type;location;lat;lon;timestamp;pressure;altitude;pressure_sealevel;temperature;humidity
6395;BME280;3230;42.588;23.358;2023-05-25T00:02:03;91054.56;;;14.24;96.55
6395;BME280;3230;42.588;23.358;2023-05-25T00:04:32;91059.75;;;14.16;97.26
6395;BME280;3230;42.588;23.358;2023-05-25T00:07:01;91062.09;;;14.17;96.74
6395;BME280;3230;42.588;23.358;2023-05-25T00:09:26;91060.34;;;14.13;97.27
6395;BME280;3230;42.588;23.358;2023-05-25T00:11:52;91050.19;;;14.06;97.40
6395;BME280;3230;42.588;23.358;2023-05-25T00:14:18;91055.38;;;13.97;97.67
6395;BME280;3230;42.588;23.358;2023-05-25T00:16:44;91050.31;;;14.01;97.01
6395;BME280;3230;42.588;23.358;2023-05-25T00:19:13;91059.47;;;14.03;96.02
6395;BME280;3230;42.588;23.358;2023-05-25T00:21:38;91053.13;;;13.90;96.32
6395;BME280;3230;42.588;23.358;2023-05-25T00:24:04;91057.22;;;13.83;96.46
6395;BME280;3230;42.588;23.358;2023-05-25T00:26:30;91059.56;;;13.84;96.44
6395;BME280;3230;42.588;23.358;2023-05-25T00:28:55;91062.59;;;13.91;96.24
6395;BME280;3230;42.588;23.358;2023-05-25T00:31:21;91062.97;;;13.99;94.45
6395;BME280;3230;42.588;23.358;2023-05-25T00:33:46;91059.44;;;13.89;95.50
6395;BME280;3230;42.588;23.358;2023-05-25T00:36:12;91070.38;;;13.83;95.70
6395;BME280;3230;42.588;23.358;2023-05-25T00:38:37;91067.84;;;13.78;96.07
6395;BME280;3230;42.588;23.358;2023-05-25T00:41:03;91068.63;;;13.78;96.23
6395;BME280;3230;42.588;23.358;2023-05-25T00:43:30;91072.44;;;13.72;96.15
6395;BME280;3230;42.588;23.358;2023-05-25T00:45:56;91071.72;;;13.66;96.96
6395;BME280;3230;42.588;23.358;2023-05-25T00:48:24;91068.91;;;13.63;97.53
6395;BME280;3230;42.588;23.358;2023-05-25T00:50:54;91074.06;;;13.54;97.08
6395;BME280;3230;42.588;23.358;2023-05-25T00:53:24;91076.69;;;13.54;97.95
6395;BME280;3230;42.588;23.358;2023-05-25T00:56:01;91067.53;;;13.51;98.61
6395;BME280;3230;42.588;23.358;2023-05-25T00:58:30;91063.78;;;13.38;99.32
6395;BME280;3230;42.588;23.358;2023-05-25T01:00:59;91065.28;;;13.25;100.00
6395;BME280;3230;42.588;23.358;2023-05-25T01:03:27;91071.31;;;13.26;100.00
6395;BME280;3230;42.588;23.358;2023-05-25T01:05:55;91073.97;;;13.26;100.00
6395;BME280;3230;42.588;23.358;2023-05-25T01:08:23;91075.00;;;12.92;100.00
6395;BME280;3230;42.588;23.358;2023-05-25T01:10:51;91072.53;;;13.01;100.00
6395;BME280;3230;42.588;23.358;2023-05-25T01:13:19;91067.06;;;12.97;100.00
6395;BME280;3230;42.588;23.358;2023-05-25T01:15:46;91077.38;;;12.93;100.00
6395;BME280;3230;42.588;23.358;2023-05-25T01:18:16;91076.75;;;12.83;100.00
6395;BME280;3230;42.588;23.358;2023-05-25T01:21:04;91080.66;;;12.85;100.00
6395;BME280;3230;42.588;23.358;2023-05-25T01:23:42;91084.13;;;12.80;100.00
6395;BME280;3230;42.588;23.358;2023-05-25T01:26:14;91068.09;;;12.63;100.00
6395;BME280;3230;42.588;23.358;2023-05-25T01:28:43;91077.03;;;12.62;100.00
6395;BME280;3230;42.588;23.358;2023-05-25T01:31:11;91076.81;;;12.58;100.00
6395;BME280;3230;42.588;23.358;2023-05-25T01:33:38;91076.72;;;12.44;100.00
6395;BME280;3230;42.588;23.358;2023-05-25T01:36:06;91071.47;;;12.44;100.00
6395;BME280;3230;42.588;23.358;2023-05-25T01:38:31;91070.53;;;12.54;100.00
6395;BME280;3230;42.588;23.358;2023-05-25T01:40:57;91068.06;;;12.44;100.00
6395;BME280;3230;42.588;23.358;2023-05-25T01:43:22;91064.00;;;12.52;100.00
6395;BME280;3230;42.588;23.358;2023-05-25T01:45:48;91066.63;;;12.52;100.00
6395;BME280;3230;42.588;23.358;2023-05-25T01:48:28;91069.00;;;12.53;100.00
6395;BME280;3230;42.588;23.358;2023-05-25T01:50:58;91066.59;;;12.57;100.00
6395;BME280;3230;42.588;23.358;2023-05-25T01:53:41;91065.66;;;12.47;100.00
6395;BME280;3230;42.588;23.358;2023-05-25T01:56:09;91062.53;;;12.45;100.00
6395;BME280;3230;42.588;23.358;2023-05-25T01:58:43;91061.38;;;12.52;100.00
6395;BME280;3230;42.588;23.358;2023-05-25T02:01:13;91060.09;;;12.49;100.00
6395;BME280;3230;42.588;23.358;2023-05-25T02:03:40;91059.34;;;12.48;100.00
6395;BME280;3230;42.588;23.358;2023-05-25T02:06:06;91064.16;;;12.41;100.00
6395;BME280;3230;42.588;23.358;2023-05-25T02:08:32;91061.75;;;12.45;100.00
6395;BME280;3230;42.588;23.358;2023-05-25T02:10:57;91070.63;;;12.49;100.00
6395;BME280;3230;42.588;23.358;2023-05-25T02:13:23;91053.56;;;12.46;100.00
6395;BME280;3230;42.588;23.358;2023-05-25T02:15:48;91059.91;;;12.45;100.00
6395;BME280;3230;42.588;23.358;2023-05-25T02:18:14;91066.09;;;12.55;100.00
6395;BME280;3230;42.588;23.358;2023-05-25T02:20:42;91065.25;;;12.59;100.00
6395;BME280;3230;42.588;23.358;2023-05-25T02:23:08;91070.19;;;12.61;100.00
6395;BME280;3230;42.588;23.358;2023-05-25T02:25:33;91072.31;;;12.59;100.00
6395;BME280;3230;42.588;23.358;2023-05-25T02:27:59;91066.31;;;12.58;100.00
6395;BME280;3230;42.588;23.358;2023-05-25T02:30:25;91074.09;;;12.63;100.00
6395;BME280;3230;42.588;23.358;2023-05-25T02:32:50;91071.34;;;12.55;100.00
6395;BME280;3230;42.588;23.358;2023-05-25T02:35:15;91076.09;;;12.53;100.00
6395;BME280;3230;42.588;23.358;2023-05-25T02:37:41;91076.69;;;12.50;100.00
6395;BME280;3230;42.588;23.358;2023-05-25T02:40:07;91081.28;;;12.39;100.00
6395;BME280;3230;42.588;23.358;2023-05-25T02:42:33;91085.38;;;12.26;100.00
6395;BME280;3230;42.588;23.358;2023-05-25T02:44:58;91079.91;;;12.22;100.00
6395;BME280;3230;42.588;23.358;2023-05-25T02:47:24;91086.66;;;12.28;100.00
6395;BME280;3230;42.588;23.358;2023-05-25T02:49:50;91091.44;;;12.26;100.00
6395;BME280;3230;42.588;23.358;2023-05-25T02:52:16;91091.63;;;12.30;100.00
6395;BME280;3230;42.588;23.358;2023-05-25T02:54:41;91096.00;;;12.40;100.00
6395;BME280;3230;42.588;23.358;2023-05-25T02:57:07;91093.22;;;12.50;100.00
6395;BME280;3230;42.588;23.358;2023-05-25T02:59:32;91101.38;;;12.48;100.00
6395;BME280;3230;42.588;23.358;2023-05-25T03:01:58;91100.34;;;12.50;100.00
6395;BME280;3230;42.588;23.358;2023-05-25T03:04:23;91095.63;;;12.46;100.00
6395;BME280;3230;42.588;23.358;2023-05-25T03:06:50;91100.03;;;12.51;100.00
6395;BME280;3230;42.588;23.358;2023-05-25T03:09:15;91105.00;;;12.53;100.00
6395;BME280;3230;42.588;23.358;2023-05-25T03:11:41;91105.88;;;12.67;100.00
6395;BME280;3230;42.588;23.358;2023-05-25T03:14:06;91109.06;;;12.64;100.00
6395;BME280;3230;42.588;23.358;2023-05-25T03:16:32;91114.81;;;12.66;100.00
6395;BME280;3230;42.588;23.358;2023-05-25T03:19:00;91107.00;;;12.61;100.00
6395;BME280;3230;42.588;23.358;2023-05-25T03:21:27;91116.03;;;12.74;100.00
6395;BME280;3230;42.588;23.358;2023-05-25T03:23:52;91103.97;;;12.73;100.00
6395;BME280;3230;42.588;23.358;2023-05-25T03:26:18;91114.63;;;12.82;100.00
6395;BME280;3230;42.588;23.358;2023-05-25T03:28:43;91112.97;;;12.86;100.00
6395;BME280;3230;42.588;23.358;2023-05-25T03:31:09;91112.88;;;12.91;100.00
6395;BME280;3230;42.588;23.358;2023-05-25T03:33:36;91117.47;;;13.04;100.00
6395;BME280;3230;42.588;23.358;2023-05-25T03:36:06;91114.00;;;13.23;100.00
6395;BME280;3230;42.588;23.358;2023-05-25T03:38:31;91114.34;;;13.35;100.00
6395;BME280;3230;42.588;23.358;2023-05-25T03:40:57;91123.59;;;13.52;100.00
6395;BME280;3230;42.588;23.358;2023-05-25T03:43:22;91118.75;;;13.87;100.00
6395;BME280;3230;42.588;23.358;2023-05-25T03:45:48;91122.66;;;13.89;100.00
6395;BME280;3230;42.588;23.358;2023-05-25T03:48:13;91112.25;;;13.98;100.00
6395;BME280;3230;42.588;23.358;2023-05-25T03:50:38;91119.47;;;14.06;100.00
6395;BME280;3230;42.588;23.358;2023-05-25T03:53:05;91121.53;;;14.23;100.00
6395;BME280;3230;42.588;23.358;2023-05-25T03:55:30;91132.47;;;14.45;100.00
6395;BME280;3230;42.588;23.358;2023-05-25T03:57:56;91134.00;;;14.87;99.53
6395;BME280;3230;42.588;23.358;2023-05-25T04:00:22;91137.94;;;15.35;97.72
6395;BME280;3230;42.588;23.358;2023-05-25T04:02:47;91129.34;;;15.52;95.45
6395;BME280;3230;42.588;23.358;2023-05-25T04:05:13;91132.66;;;15.81;95.90
6395;BME280;3230;42.588;23.358;2023-05-25T04:07:38;91131.50;;;15.96;95.80
6395;BME280;3230;42.588;23.358;2023-05-25T04:10:05;91132.56;;;16.26;94.83
6395;BME280;3230;42.588;23.358;2023-05-25T04:12:31;91135.56;;;16.42;94.65
6395;BME280;3230;42.588;23.358;2023-05-25T04:14:59;91139.22;;;16.64;93.61
6395;BME280;3230;42.588;23.358;2023-05-25T04:17:24;91138.69;;;17.02;93.13
6395;BME280;3230;42.588;23.358;2023-05-25T04:19:51;91151.47;;;17.62;91.39
6395;BME280;3230;42.588;23.358;2023-05-25T04:22:17;91150.78;;;18.17;89.73
6395;BME280;3230;42.588;23.358;2023-05-25T04:24:43;91156.16;;;18.77;86.78
6395;BME280;3230;42.588;23.358;2023-05-25T04:27:08;91154.28;;;19.29;82.28
6395;BME280;3230;42.588;23.358;2023-05-25T04:29:34;91160.97;;;19.35;80.26
6395;BME280;3230;42.588;23.358;2023-05-25T04:32:01;91166.44;;;19.60;79.37
6395;BME280;3230;42.588;23.358;2023-05-25T04:34:27;91155.97;;;20.55;73.59
6395;BME280;3230;42.588;23.358;2023-05-25T04:36:53;91173.47;;;21.43;68.66
6395;BME280;3230;42.588;23.358;2023-05-25T04:39:20;91174.16;;;22.38;64.83
6395;BME280;3230;42.588;23.358;2023-05-25T04:41:46;91185.72;;;24.32;52.80
6395;BME280;3230;42.588;23.358;2023-05-25T04:44:12;91173.22;;;26.58;45.19
6395;BME280;3230;42.588;23.358;2023-05-25T04:46:38;91178.22;;;27.50;41.07
6395;BME280;3230;42.588;23.358;2023-05-25T04:49:05;91185.91;;;28.25;38.25
6395;BME280;3230;42.588;23.358;2023-05-25T04:51:32;91181.66;;;28.17;38.44
6395;BME280;3230;42.588;23.358;2023-05-25T04:53:58;91180.34;;;29.10;37.11
6395;BME280;3230;42.588;23.358;2023-05-25T04:56:24;91178.34;;;29.79;35.26
6395;BME280;3230;42.588;23.358;2023-05-25T04:58:51;91186.78;;;30.10;35.94
6395;BME280;3230;42.588;23.358;2023-05-25T05:01:17;91180.00;;;30.65;35.10
6395;BME280;3230;42.588;23.358;2023-05-25T05:03:44;91174.50;;;31.36;33.46
6395;BME280;3230;42.588;23.358;2023-05-25T05:06:10;91179.81;;;30.94;33.26
6395;BME280;3230;42.588;23.358;2023-05-25T05:08:35;91166.78;;;29.82;36.26
6395;BME280;3230;42.588;23.358;2023-05-25T05:11:01;91165.31;;;29.01;37.34
6395;BME280;3230;42.588;23.358;2023-05-25T05:13:26;91166.47;;;30.65;36.12
6395;BME280;3230;42.588;23.358;2023-05-25T05:15:52;61022.06;;;-147.60;33.52
6395;BME280;3230;42.588;23.358;2023-05-25T05:18:18;91171.16;;;31.17;34.32
6395;BME280;3230;42.588;23.358;2023-05-25T05:20:43;91177.75;;;32.38;32.49
6395;BME280;3230;42.588;23.358;2023-05-25T05:23:09;91175.94;;;32.28;31.44
6395;BME280;3230;42.588;23.358;2023-05-25T05:25:35;91176.97;;;32.03;32.02
6395;BME280;3230;42.588;23.358;2023-05-25T05:28:02;91174.69;;;31.60;32.52
6395;BME280;3230;42.588;23.358;2023-05-25T05:30:27;91173.59;;;30.97;33.64
6395;BME280;3230;42.588;23.358;2023-05-25T05:32:53;91177.31;;;-100.10;34.50
6395;BME280;3230;42.588;23.358;2023-05-25T05:35:18;91177.66;;;31.72;32.85
6395;BME280;3230;42.588;23.358;2023-05-25T05:37:44;91183.16;;;31.16;33.17
6395;BME280;3230;42.588;23.358;2023-05-25T05:40:11;91187.13;;;30.97;33.93
6395;BME280;3230;42.588;23.358;2023-05-25T05:42:36;91182.50;;;31.50;33.09
6395;BME280;3230;42.588;23.358;2023-05-25T05:45:02;91178.06;;;30.66;33.66
6395;BME280;3230;42.588;23.358;2023-05-25T05:47:27;61022.06;;;-147.60;100.00
6395;BME280;3230;42.588;23.358;2023-05-25T05:49:53;61022.06;;;-147.60;100.00
6395;BME280;3230;42.588;23.358;2023-05-25T05:52:18;61022.06;;;-147.60;100.00
6395;BME280;3230;42.588;23.358;2023-05-25T05:54:44;61022.06;;;-147.60;100.00
6395;BME280;3230;42.588;23.358;2023-05-25T05:57:09;61022.06;;;-147.60;100.00
6395;BME280;3230;42.588;23.358;2023-05-25T05:59:34;61022.06;;;-147.60;100.00
6395;BME280;3230;42.588;23.358;2023-05-25T06:02:00;61022.06;;;-147.60;100.00
6395;BME280;3230;42.588;23.358;2023-05-25T06:04:25;61022.06;;;-147.60;100.00
6395;BME280;3230;42.588;23.358;2023-05-25T06:06:53;61022.06;;;-147.60;100.00
6395;BME280;3230;42.588;23.358;2023-05-25T06:09:18;61022.06;;;-147.60;100.00
6395;BME280;3230;42.588;23.358;2023-05-25T06:11:44;61022.06;;;-147.60;100.00
6395;BME280;3230;42.588;23.358;2023-05-25T06:14:09;61022.06;;;-147.60;100.00
6395;BME280;3230;42.588;23.358;2023-05-25T06:16:35;61022.06;;;-147.60;100.00
6395;BME280;3230;42.588;23.358;2023-05-25T06:19:01;61022.06;;;-147.60;100.00
6395;BME280;3230;42.588;23.358;2023-05-25T06:21:27;61022.06;;;-147.60;100.00
6395;BME280;3230;42.588;23.358;2023-05-25T06:23:53;61022.06;;;-147.60;100.00
6395;BME280;3230;42.588;23.358;2023-05-25T06:26:22;61022.06;;;-147.60;100.00
6395;BME280;3230;42.588;23.358;2023-05-25T06:28:48;61022.06;;;-147.60;100.00
6395;BME280;3230;42.588;23.358;2023-05-25T06:31:14;61022.06;;;-147.60;100.00
6395;BME280;3230;42.588;23.358;2023-05-25T06:33:40;61022.06;;;-147.60;100.00
6395;BME280;3230;42.588;23.358;2023-05-25T06:36:07;61022.06;;;-147.60;100.00
6395;BME280;3230;42.588;23.358;2023-05-25T06:38:32;61022.06;;;-147.60;100.00
6395;BME280;3230;42.588;23.358;2023-05-25T06:40:58;61022.06;;;-147.60;100.00
6395;BME280;3230;42.588;23.358;2023-05-25T06:43:29;61022.06;;;-147.60;100.00
6395;BME280;3230;42.588;23.358;2023-05-25T06:45:54;61022.06;;;-147.60;100.00
6395;BME280;3230;42.588;23.358;2023-05-25T06:48:20;61022.06;;;-147.60;100.00
6395;BME280;3230;42.588;23.358;2023-05-25T06:50:46;61022.06;;;-147.60;100.00
6395;BME280;3230;42.588;23.358;2023-05-25T06:53:14;61022.06;;;-147.60;100.00
6395;BME280;3230;42.588;23.358;2023-05-25T06:55:41;61022.06;;;-147.60;100.00
6395;BME280;3230;42.588;23.358;2023-05-25T06:58:07;61022.06;;;-147.60;100.00
6395;BME280;3230;42.588;23.358;2023-05-25T07:00:32;61022.06;;;-147.60;100.00
6395;BME280;3230;42.588;23.358;2023-05-25T07:02:57;61022.06;;;-147.60;100.00
6395;BME280;3230;42.588;23.358;2023-05-25T07:05:23;61022.06;;;-147.60;100.00
6395;BME280;3230;42.588;23.358;2023-05-25T07:07:48;61022.06;;;-147.60;100.00
6395;BME280;3230;42.588;23.358;2023-05-25T07:10:14;61022.06;;;-147.60;100.00
6395;BME280;3230;42.588;23.358;2023-05-25T07:12:39;61022.06;;;-147.60;100.00
6395;BME280;3230;42.588;23.358;2023-05-25T07:15:05;61022.06;;;-147.60;100.00
6395;BME280;3230;42.588;23.358;2023-05-25T07:17:31;61022.06;;;-147.60;100.00
6395;BME280;3230;42.588;23.358;2023-05-25T07:19:56;61022.06;;;-147.60;100.00
6395;BME280;3230;42.588;23.358;2023-05-25T07:22:22;61022.06;;;-147.60;100.00
6395;BME280;3230;42.588;23.358;2023-05-25T07:24:48;61022.06;;;-147.60;100.00
6395;BME280;3230;42.588;23.358;2023-05-25T07:27:13;61022.06;;;-147.60;100.00
6395;BME280;3230;42.588;23.358;2023-05-25T07:29:39;61022.06;;;-147.60;100.00
6395;BME280;3230;42.588;23.358;2023-05-25T07:32:05;61022.06;;;-147.60;100.00
6395;BME280;3230;42.588;23.358;2023-05-25T07:34:32;61022.06;;;-147.60;100.00
6395;BME280;3230;42.588;23.358;2023-05-25T07:36:57;61022.06;;;-147.60;100.00
6395;BME280;3230;42.588;23.358;2023-05-25T07:39:23;61022.06;;;-147.60;100.00
6395;BME280;3230;42.588;23.358;2023-05-25T07:41:48;61022.06;;;-147.60;100.00
6395;BME280;3230;42.588;23.358;2023-05-25T07:44:14;61022.06;;;-147.60;100.00
6395;BME280;3230;42.588;23.358;2023-05-25T07:46:39;61022.06;;;-147.60;100.00
6395;BME280;3230;42.588;23.358;2023-05-25T07:49:05;61022.06;;;-147.60;100.00
6395;BME280;3230;42.588;23.358;2023-05-25T07:51:36;61022.06;;;-147.60;100.00
6395;BME280;3230;42.588;23.358;2023-05-25T07:54:01;61022.06;;;-147.60;100.00
6395;BME280;3230;42.588;23.358;2023-05-25T07:56:27;61022.06;;;-147.60;100.00
6395;BME280;3230;42.588;23.358;2023-05-25T07:58:52;61022.06;;;-147.60;100.00
6395;BME280;3230;42.588;23.358;2023-05-25T08:01:18;61022.06;;;-147.60;100.00
6395;BME280;3230;42.588;23.358;2023-05-25T08:03:43;61022.06;;;-147.60;100.00
6395;BME280;3230;42.588;23.358;2023-05-25T08:06:09;61022.06;;;-147.60;100.00
6395;BME280;3230;42.588;23.358;2023-05-25T08:08:35;61022.06;;;-147.60;100.00
6395;BME280;3230;42.588;23.358;2023-05-25T08:11:01;61022.06;;;-147.60;100.00
6395;BME280;3230;42.588;23.358;2023-05-25T08:13:27;61022.06;;;-147.60;100.00
6395;BME280;3230;42.588;23.358;2023-05-25T08:15:52;61022.06;;;-147.60;100.00
6395;BME280;3230;42.588;23.358;2023-05-25T08:18:18;61022.06;;;-147.60;100.00
6395;BME280;3230;42.588;23.358;2023-05-25T08:20:43;61022.06;;;-147.60;100.00
6395;BME280;3230;42.588;23.358;2023-05-25T08:23:09;61022.06;;;-147.60;100.00
6395;BME280;3230;42.588;23.358;2023-05-25T08:25:34;61022.06;;;-147.60;100.00
6395;BME280;3230;42.588;23.358;2023-05-25T08:28:00;61022.06;;;-147.60;100.00
6395;BME280;3230;42.588;23.358;2023-05-25T08:30:25;61022.06;;;-147.60;100.00
6395;BME280;3230;42.588;23.358;2023-05-25T08:32:50;61022.06;;;-147.60;100.00
6395;BME280;3230;42.588;23.358;2023-05-25T08:35:16;61022.06;;;-147.60;100.00
6395;BME280;3230;42.588;23.358;2023-05-25T08:37:42;61022.06;;;-147.60;100.00
6395;BME280;3230;42.588;23.358;2023-05-25T08:40:15;61022.06;;;-147.60;100.00
6395;BME280;3230;42.588;23.358;2023-05-25T08:42:42;61022.06;;;-147.60;100.00
6395;BME280;3230;42.588;23.358;2023-05-25T08:45:08;61022.06;;;-147.60;100.00
6395;BME280;3230;42.588;23.358;2023-05-25T08:47:39;61022.06;;;-147.60;100.00
6395;BME280;3230;42.588;23.358;2023-05-25T08:50:08;61022.06;;;-147.60;100.00
6395;BME280;3230;42.588;23.358;2023-05-25T08:52:35;61022.06;;;-147.60;100.00
6395;BME280;3230;42.588;23.358;2023-05-25T08:55:07;61022.06;;;-147.60;100.00
6395;BME280;3230;42.588;23.358;2023-05-25T09:00:13;61022.06;;;-147.60;100.00
6395;BME280;3230;42.588;23.358;2023-05-25T09:03:05;61022.06;;;-147.60;100.00
6395;BME280;3230;42.588;23.358;2023-05-25T09:05:33;61022.06;;;-147.60;100.00
6395;BME280;3230;42.588;23.358;2023-05-25T09:07:59;61022.06;;;-147.60;100.00
6395;BME280;3230;42.588;23.358;2023-05-25T09:10:26;61022.06;;;-147.60;100.00
6395;BME280;3230;42.588;23.358;2023-05-25T09:12:52;61022.06;;;-147.60;100.00
6395;BME280;3230;42.588;23.358;2023-05-25T09:15:18;61022.06;;;-147.60;100.00
6395;BME280;3230;42.588;23.358;2023-05-25T09:17:44;61022.06;;;-147.60;100.00
6395;BME280;3230;42.588;23.358;2023-05-25T09:20:10;61022.06;;;-147.60;100.00
6395;BME280;3230;42.588;23.358;2023-05-25T09:22:37;61022.06;;;-147.60;100.00
6395;BME280;3230;42.588;23.358;2023-05-25T09:25:06;61022.06;;;-147.60;100.00
6395;BME280;3230;42.588;23.358;2023-05-25T09:27:36;61022.06;;;-147.60;100.00
6395;BME280;3230;42.588;23.358;2023-05-25T09:30:03;61022.06;;;-147.60;100.00
6395;BME280;3230;42.588;23.358;2023-05-25T09:32:29;61022.06;;;-147.60;100.00
6395;BME280;3230;42.588;23.358;2023-05-25T09:34:55;61022.06;;;-147.60;100.00
6395;BME280;3230;42.588;23.358;2023-05-25T09:37:22;61022.06;;;-147.60;100.00
6395;BME280;3230;42.588;23.358;2023-05-25T09:39:49;61022.06;;;-147.60;100.00
6395;BME280;3230;42.588;23.358;2023-05-25T09:42:15;61022.06;;;-147.60;100.00
6395;BME280;3230;42.588;23.358;2023-05-25T09:44:41;61022.06;;;-147.60;100.00
6395;BME280;3230;42.588;23.358;2023-05-25T09:47:09;61022.06;;;-147.60;100.00
6395;BME280;3230;42.588;23.358;2023-05-25T09:49:35;61022.06;;;-147.60;100.00
6395;BME280;3230;42.588;23.358;2023-05-25T09:52:01;61022.06;;;-147.60;100.00
6395;BME280;3230;42.588;23.358;2023-05-25T09:54:27;61022.06;;;-147.60;100.00
6395;BME280;3230;42.588;23.358;2023-05-25T09:56:53;61022.06;;;-147.60;100.00
6395;BME280;3230;42.588;23.358;2023-05-25T09:59:18;61022.06;;;-147.60;100.00
6395;BME280;3230;42.588;23.358;2023-05-25T10:01:44;61022.06;;;-147.60;100.00
6395;BME280;3230;42.588;23.358;2023-05-25T10:04:09;61022.06;;;-147.60;100.00
6395;BME280;3230;42.588;23.358;2023-05-25T10:06:37;61022.06;;;-147.60;100.00
6395;BME280;3230;42.588;23.358;2023-05-25T10:09:05;61022.06;;;-147.60;100.00
6395;BME280;3230;42.588;23.358;2023-05-25T10:11:33;61022.06;;;-147.60;100.00
6395;BME280;3230;42.588;23.358;2023-05-25T10:14:05;61022.06;;;-147.60;100.00
6395;BME280;3230;42.588;23.358;2023-05-25T10:16:32;61022.06;;;-147.60;100.00
6395;BME280;3230;42.588;23.358;2023-05-25T10:19:14;61022.06;;;-147.60;100.00
6395;BME280;3230;42.588;23.358;2023-05-25T10:21:46;61022.06;;;-147.60;100.00
6395;BME280;3230;42.588;23.358;2023-05-25T10:24:37;61022.06;;;-147.60;100.00
6395;BME280;3230;42.588;23.358;2023-05-25T10:27:09;61022.06;;;-147.60;100.00
6395;BME280;3230;42.588;23.358;2023-05-25T10:29:36;61022.06;;;-147.60;100.00
6395;BME280;3230;42.588;23.358;2023-05-25T10:32:03;61022.06;;;-147.60;100.00
6395;BME280;3230;42.588;23.358;2023-05-25T10:34:29;61022.06;;;-147.60;100.00
6395;BME280;3230;42.588;23.358;2023-05-25T10:36:56;61022.06;;;-147.60;100.00
6395;BME280;3230;42.588;23.358;2023-05-25T10:39:21;61022.06;;;-147.60;100.00
6395;BME280;3230;42.588;23.358;2023-05-25T10:41:50;61022.06;;;-147.60;100.00
6395;BME280;3230;42.588;23.358;2023-05-25T10:44:17;61022.06;;;-147.60;100.00
6395;BME280;3230;42.588;23.358;2023-05-25T10:46:44;61022.06;;;-147.60;100.00
6395;BME280;3230;42.588;23.358;2023-05-25T10:49:09;61022.06;;;-147.60;100.00
6395;BME280;3230;42.588;23.358;2023-05-25T10:51:39;61022.06;;;-147.60;100.00
6395;BME280;3230;42.588;23.358;2023-05-25T10:54:05;61022.06;;;-147.60;100.00
6395;BME280;3230;42.588;23.358;2023-05-25T10:56:31;61022.06;;;-147.60;100.00
6395;BME280;3230;42.588;23.358;2023-05-25T10:58:56;61022.06;;;-147.60;100.00
6395;BME280;3230;42.588;23.358;2023-05-25T11:01:23;61022.06;;;-147.60;100.00
6395;BME280;3230;42.588;23.358;2023-05-25T11:06:18;61022.06;;;-147.60;100.00
6395;BME280;3230;42.588;23.358;2023-05-25T11:08:59;61022.06;;;-147.60;100.00
6395;BME280;3230;42.588;23.358;2023-05-25T11:19:42;61022.06;;;-147.60;100.00
6395;BME280;3230;42.588;23.358;2023-05-25T11:24:43;61022.06;;;-147.60;100.00
6395;BME280;3230;42.588;23.358;2023-05-25T11:27:10;61022.06;;;-147.60;100.00
6395;BME280;3230;42.588;23.358;2023-05-25T11:29:36;61022.06;;;-147.60;100.00
6395;BME280;3230;42.588;23.358;2023-05-25T11:32:02;61022.06;;;-147.60;100.00
6395;BME280;3230;42.588;23.358;2023-05-25T11:34:29;61022.06;;;-147.60;100.00
6395;BME280;3230;42.588;23.358;2023-05-25T11:36:59;61022.06;;;-147.60;100.00
6395;BME280;3230;42.588;23.358;2023-05-25T11:39:28;61022.06;;;-147.60;100.00
6395;BME280;3230;42.588;23.358;2023-05-25T11:41:55;61022.06;;;-147.60;100.00
6395;BME280;3230;42.588;23.358;2023-05-25T11:44:26;61022.06;;;-147.60;100.00
6395;BME280;3230;42.588;23.358;2023-05-25T11:46:53;61022.06;;;-147.60;100.00
6395;BME280;3230;42.588;23.358;2023-05-25T11:49:22;61022.06;;;-147.60;100.00
6395;BME280;3230;42.588;23.358;2023-05-25T11:51:48;61022.06;;;-147.60;100.00
6395;BME280;3230;42.588;23.358;2023-05-25T11:54:21;61022.06;;;-147.60;100.00
6395;BME280;3230;42.588;23.358;2023-05-25T11:56:47;61022.06;;;-147.60;100.00
6395;BME280;3230;42.588;23.358;2023-05-25T11:59:12;61022.06;;;-147.60;100.00
6395;BME280;3230;42.588;23.358;2023-05-25T12:01:38;61022.06;;;-147.60;100.00
6395;BME280;3230;42.588;23.358;2023-05-25T12:04:10;61022.06;;;-147.60;100.00
6395;BME280;3230;42.588;23.358;2023-05-25T12:06:35;61022.06;;;-147.60;100.00
6395;BME280;3230;42.588;23.358;2023-05-25T12:09:02;61022.06;;;-147.60;100.00
6395;BME280;3230;42.588;23.358;2023-05-25T12:11:34;61022.06;;;-147.60;100.00
6395;BME280;3230;42.588;23.358;2023-05-25T12:14:03;61022.06;;;-147.60;100.00
6395;BME280;3230;42.588;23.358;2023-05-25T12:16:30;61022.06;;;-147.60;100.00
6395;BME280;3230;42.588;23.358;2023-05-25T12:18:56;61022.06;;;-147.60;100.00
6395;BME280;3230;42.588;23.358;2023-05-25T12:21:22;61022.06;;;-147.60;100.00
6395;BME280;3230;42.588;23.358;2023-05-25T12:23:49;61022.06;;;-147.60;100.00
6395;BME280;3230;42.588;23.358;2023-05-25T12:26:16;61022.06;;;-147.60;100.00
6395;BME280;3230;42.588;23.358;2023-05-25T12:28:59;61022.06;;;-147.60;100.00
6395;BME280;3230;42.588;23.358;2023-05-25T12:31:30;61022.06;;;-147.60;100.00
6395;BME280;3230;42.588;23.358;2023-05-25T12:36:44;61022.06;;;-147.60;100.00
6395;BME280;3230;42.588;23.358;2023-05-25T12:39:11;61022.06;;;-147.60;100.00
6395;BME280;3230;42.588;23.358;2023-05-25T12:41:48;61022.06;;;-147.60;100.00
6395;BME280;3230;42.588;23.358;2023-05-25T12:46:54;61022.06;;;-147.60;100.00
6395;BME280;3230;42.588;23.358;2023-05-25T12:49:31;61022.06;;;-147.60;100.00
6395;BME280;3230;42.588;23.358;2023-05-25T12:52:00;61022.06;;;-147.60;100.00
6395;BME280;3230;42.588;23.358;2023-05-25T12:54:33;61022.06;;;-147.60;100.00
6395;BME280;3230;42.588;23.358;2023-05-25T12:56:59;61022.06;;;-147.60;100.00
6395;BME280;3230;42.588;23.358;2023-05-25T12:59:26;61022.06;;;-147.60;100.00
6395;BME280;3230;42.588;23.358;2023-05-25T13:01:51;61022.06;;;-147.60;100.00
6395;BME280;3230;42.588;23.358;2023-05-25T13:04:17;61022.06;;;-147.60;100.00
6395;BME280;3230;42.588;23.358;2023-05-25T13:06:42;61022.06;;;-147.60;100.00
6395;BME280;3230;42.588;23.358;2023-05-25T13:09:08;61022.06;;;-147.60;100.00
6395;BME280;3230;42.588;23.358;2023-05-25T13:11:33;61022.06;;;-147.60;100.00